Terminal Aerodrome Forecast
Issued by NWS

Home | Current Version | Previous Version | Text Only | Print | Product List | Glossary On
Versions: 1 2 3 4 5 6 7 8 9 10 11 12 13 14 15 16 17
830
FTUS46 KMFR 250547
TAFLMT
TAF
KLMT 250547Z 2506/2606 28007KT P6SM OVC035
     FM251800 24010G20KT P6SM VCSH BKN040 BKN050
     FM252000 24018G28KT P6SM -SHSN SCT025 BKN035 BKN050
     FM260100 24015G28KT 1/2SM SN SCT003 OVC009=

USA.gov is the U.S. government's official web portal to all federal, state and local government web resources and services.